createdAt,value
2019-03-18T00:01:20.860Z,5.78
2019-03-18T00:03:24.317Z,4.47
2019-03-18T00:05:27.912Z,2.10
2019-03-18T00:07:31.725Z,1.80
2019-03-18T00:09:35.285Z,2.08
2019-03-18T00:11:38.854Z,1.45
2019-03-18T00:13:42.757Z,1.42
2019-03-18T00:15:46.625Z,1.32
2019-03-18T00:17:50.148Z,1.90
2019-03-18T00:19:53.927Z,1.57
2019-03-18T00:21:57.725Z,1.72
2019-03-18T00:24:01.180Z,2.17
2019-03-18T00:26:04.652Z,3.67
2019-03-18T00:28:08.173Z,2.30
2019-03-18T00:30:17.401Z,1.70
2019-03-18T00:32:20.865Z,2.22
2019-03-18T00:34:24.786Z,2.47
2019-03-18T00:36:28.316Z,2.33
2019-03-18T00:38:31.774Z,3.72
2019-03-18T00:40:36.125Z,2.60
2019-03-18T00:42:39.753Z,2.00
2019-03-18T00:44:43.272Z,1.87
2019-03-18T00:46:46.838Z,3.02
2019-03-18T00:48:50.297Z,2.50
2019-03-18T00:50:53.753Z,2.12
2019-03-18T00:52:57.280Z,1.90
2019-03-18T00:55:00.877Z,2.20
2019-03-18T00:57:04.374Z,1.82
2019-03-18T00:59:07.905Z,2.12
2019-03-18T01:01:11.436Z,3.90
2019-03-18T01:03:15.309Z,2.33
2019-03-18T01:05:18.762Z,2.83
2019-03-18T01:07:22.301Z,2.45
2019-03-18T01:09:25.760Z,2.30
2019-03-18T01:11:29.216Z,2.83
2019-03-18T01:13:32.939Z,3.52
2019-03-18T01:15:36.821Z,2.77
2019-03-18T01:17:40.701Z,2.83
2019-03-18T01:19:44.358Z,2.20
2019-03-18T01:21:47.885Z,2.45
2019-03-18T01:23:51.422Z,2.10
2019-03-18T01:25:54.876Z,2.12
2019-03-18T01:27:58.337Z,2.40
2019-03-18T01:30:02.078Z,2.83
2019-03-18T01:32:05.610Z,5.47
2019-03-18T01:34:09.153Z,7.60
2019-03-18T01:36:12.973Z,6.62
2019-03-18T01:38:16.776Z,4.03
2019-03-18T01:40:20.227Z,3.17
2019-03-18T01:42:23.757Z,4.10
2019-03-18T01:44:27.285Z,5.65
2019-03-18T01:46:30.853Z,4.42
2019-03-18T01:48:34.413Z,2.45
2019-03-18T01:50:38.262Z,2.87
2019-03-18T01:52:41.827Z,2.85
2019-03-18T01:54:45.356Z,2.80
2019-03-18T01:56:48.889Z,2.55
2019-03-18T01:58:52.359Z,2.83
2019-03-18T02:00:56.250Z,3.83
2019-03-18T02:02:59.704Z,3.10
2019-03-18T02:05:03.341Z,3.95
2019-03-18T02:07:07.118Z,4.50
2019-03-18T02:09:10.654Z,4.03
2019-03-18T02:11:14.285Z,3.47
2019-03-18T02:13:18.141Z,3.25
2019-03-18T02:15:21.941Z,3.67
2019-03-18T02:17:25.408Z,3.50
2019-03-18T02:19:29.137Z,4.20
2019-03-18T02:21:32.685Z,4.37
2019-03-18T02:23:36.289Z,4.70
2019-03-18T02:25:39.747Z,4.53
2019-03-18T02:27:43.204Z,3.67
2019-03-18T02:29:46.929Z,4.67
2019-03-18T02:31:50.398Z,4.33
2019-03-18T02:33:53.925Z,4.53
2019-03-18T02:35:57.460Z,3.80
2019-03-18T02:38:00.994Z,4.33
2019-03-18T02:40:07.022Z,3.67
2019-03-18T02:42:10.864Z,3.80
2019-03-18T02:44:14.403Z,4.12
2019-03-18T02:46:18.236Z,4.10
2019-03-18T02:48:21.768Z,3.47
2019-03-18T02:50:25.405Z,3.42
2019-03-18T02:52:28.945Z,3.85
2019-03-18T02:54:32.483Z,5.97
2019-03-18T02:56:36.333Z,5.72
2019-03-18T02:58:39.859Z,4.33
2019-03-18T03:00:43.768Z,3.90
2019-03-18T03:02:47.491Z,4.40
2019-03-18T03:04:51.013Z,14.73
2019-03-18T03:06:54.758Z,9.55
2019-03-18T03:08:58.552Z,8.00
2019-03-18T03:11:02.111Z,6.80
2019-03-18T03:13:05.682Z,12.05
2019-03-18T03:15:14.369Z,7.67
2019-03-18T03:17:21.735Z,6.73
2019-03-18T03:19:23.406Z,11.05
2019-03-18T03:21:27.049Z,7.53
2019-03-18T03:23:31.418Z,7.47
2019-03-18T03:25:35.322Z,11.10
2019-03-18T03:27:38.861Z,10.10
2019-03-18T03:29:42.477Z,10.03
2019-03-18T03:31:46.057Z,8.55
2019-03-18T03:33:49.897Z,13.30
2019-03-18T03:35:53.445Z,11.28
2019-03-18T03:37:57.319Z,18.77
2019-03-18T03:40:01.717Z,10.65
2019-03-18T03:42:05.556Z,7.72
2019-03-18T03:44:09.065Z,6.47
2019-03-18T03:46:12.790Z,6.53
2019-03-18T03:48:16.340Z,7.42
2019-03-18T03:50:19.918Z,6.62
2019-03-18T03:52:23.814Z,7.08
2019-03-18T03:54:27.337Z,6.62
2019-03-18T03:56:30.876Z,4.90
2019-03-18T03:58:34.509Z,4.80
2019-03-18T04:00:38.407Z,4.55
2019-03-18T04:02:42.311Z,5.15
2019-03-18T04:04:46.136Z,5.30
2019-03-18T04:06:49.677Z,5.55
2019-03-18T04:08:53.741Z,4.45
2019-03-18T04:10:57.356Z,4.42
2019-03-18T04:13:01.345Z,4.60
2019-03-18T04:15:08.022Z,5.55
2019-03-18T04:17:11.557Z,5.37
2019-03-18T04:19:15.163Z,4.70
2019-03-18T04:21:18.699Z,4.40
2019-03-18T04:23:22.233Z,5.10
2019-03-18T04:25:26.189Z,4.33
2019-03-18T04:27:29.732Z,4.25
2019-03-18T04:29:33.270Z,4.58
2019-03-18T04:31:36.801Z,5.62
2019-03-18T04:33:40.262Z,4.25
2019-03-18T04:35:44.204Z,4.75
2019-03-18T04:37:48.537Z,4.40
2019-03-18T04:39:52.896Z,5.17
2019-03-18T04:41:57.317Z,5.70
2019-03-18T04:44:00.963Z,5.75
2019-03-18T04:46:04.424Z,6.53
2019-03-18T04:48:07.967Z,7.25
2019-03-18T04:50:12.932Z,9.03
2019-03-18T04:52:17.069Z,7.03
2019-03-18T04:54:20.872Z,5.03
2019-03-18T04:56:24.401Z,4.42
2019-03-18T04:58:27.856Z,4.97
2019-03-18T05:00:31.316Z,6.95
2019-03-18T05:02:34.849Z,5.45
2019-03-18T05:04:38.382Z,7.03
2019-03-18T05:06:41.949Z,6.40
2019-03-18T05:08:45.565Z,5.62
2019-03-18T05:10:49.088Z,5.83
2019-03-18T05:12:52.820Z,6.75
2019-03-18T05:14:56.609Z,6.22
2019-03-18T05:17:00.137Z,7.08
2019-03-18T05:19:04.001Z,7.55
2019-03-18T05:21:07.540Z,8.05
2019-03-18T05:23:11.341Z,8.25
2019-03-18T05:25:15.245Z,7.33
2019-03-18T05:27:18.712Z,8.15
2019-03-18T05:29:22.261Z,7.97
2019-03-18T05:31:25.722Z,6.95
2019-03-18T05:33:29.538Z,5.67
2019-03-18T05:35:33.338Z,6.42
2019-03-18T05:37:37.135Z,7.53
2019-03-18T05:39:40.604Z,13.98
2019-03-18T05:41:44.432Z,14.65
2019-03-18T05:43:49.297Z,28.47
2019-03-18T05:45:53.651Z,37.23
2019-03-18T05:47:57.454Z,19.62
2019-03-18T05:50:00.932Z,39.23
2019-03-18T05:52:04.641Z,41.42
2019-03-18T05:54:08.100Z,41.02
2019-03-18T05:56:11.665Z,36.75
2019-03-18T05:58:15.209Z,22.22
2019-03-18T06:00:18.690Z,14.78
2019-03-18T06:02:22.227Z,11.50
2019-03-18T06:04:25.775Z,15.10
2019-03-18T06:06:29.308Z,14.43
2019-03-18T06:08:32.773Z,12.80
2019-03-18T06:10:36.250Z,11.15
2019-03-18T06:12:40.137Z,11.43
2019-03-18T06:14:44.735Z,12.90
2019-03-18T06:16:48.287Z,14.50
2019-03-18T06:18:52.157Z,13.78
2019-03-18T06:20:55.729Z,11.85
2019-03-18T06:22:59.666Z,10.43
2019-03-18T06:25:03.586Z,8.28
2019-03-18T06:27:07.106Z,5.50
2019-03-18T06:29:10.813Z,6.97
2019-03-18T06:31:14.349Z,5.40
2019-03-18T06:33:17.811Z,5.25
2019-03-18T06:35:21.353Z,6.15
2019-03-18T06:37:24.812Z,7.17
2019-03-18T06:39:28.280Z,5.67
2019-03-18T06:41:32.624Z,5.15
2019-03-18T06:43:36.080Z,5.22
2019-03-18T06:45:39.853Z,5.20
2019-03-18T06:47:43.781Z,5.08
2019-03-18T06:49:47.685Z,7.47
2019-03-18T06:51:51.470Z,7.62
2019-03-18T06:53:55.121Z,7.30
2019-03-18T06:55:58.741Z,6.00
2019-03-18T06:58:02.281Z,6.03
2019-03-18T07:00:08.824Z,6.08
2019-03-18T07:02:12.302Z,7.15
2019-03-18T07:04:16.076Z,7.12
2019-03-18T07:06:19.695Z,8.65
2019-03-18T07:08:23.238Z,11.40
2019-03-18T07:10:26.781Z,10.85
2019-03-18T07:12:30.613Z,7.90
2019-03-18T07:14:34.081Z,6.60
2019-03-18T07:16:37.605Z,8.50
2019-03-18T07:18:41.065Z,7.25
2019-03-18T07:20:44.556Z,9.73
2019-03-18T07:22:48.878Z,6.05
2019-03-18T07:24:52.354Z,5.87
2019-03-18T07:26:55.884Z,12.35
2019-03-18T07:28:59.345Z,11.78
2019-03-18T07:31:02.810Z,15.03
2019-03-18T07:33:06.660Z,7.12
2019-03-18T07:35:10.336Z,7.62
2019-03-18T07:37:13.983Z,8.53
2019-03-18T07:39:17.508Z,6.97
2019-03-18T07:41:21.266Z,7.65
2019-03-18T07:43:24.803Z,7.10
2019-03-18T07:45:28.274Z,6.12
2019-03-18T07:47:31.841Z,6.35
2019-03-18T07:49:35.303Z,5.53
2019-03-18T07:51:38.841Z,5.92
2019-03-18T07:53:42.769Z,5.12
2019-03-18T07:55:46.300Z,4.85
2019-03-18T07:57:49.841Z,5.35
2019-03-18T07:59:54.250Z,4.75
2019-03-18T08:01:57.790Z,5.30
2019-03-18T08:04:01.317Z,4.67
2019-03-18T08:06:04.872Z,4.15
2019-03-18T08:08:08.335Z,4.67
2019-03-18T08:10:15.003Z,5.37
2019-03-18T08:12:18.555Z,4.67
2019-03-18T08:14:22.088Z,4.60
2019-03-18T08:16:25.608Z,5.60
2019-03-18T08:18:29.144Z,6.17
2019-03-18T08:20:32.605Z,6.00
2019-03-18T08:22:36.213Z,5.95
2019-03-18T08:24:39.744Z,7.45
2019-03-18T08:26:43.312Z,10.43
2019-03-18T08:28:46.842Z,8.20
2019-03-18T08:30:50.609Z,8.93
2019-03-18T08:32:54.501Z,10.35
2019-03-18T08:34:57.965Z,8.53
2019-03-18T08:37:01.500Z,8.88
2019-03-18T08:39:07.865Z,7.60
2019-03-18T08:41:11.465Z,7.78
2019-03-18T08:43:14.992Z,7.20
2019-03-18T08:45:19.333Z,8.55
2019-03-18T08:47:23.061Z,7.00
2019-03-18T08:49:26.523Z,10.00
2019-03-18T08:51:30.092Z,7.75
2019-03-18T08:53:33.556Z,6.28
2019-03-18T08:55:37.089Z,5.37
2019-03-18T08:57:40.947Z,4.17
2019-03-18T08:59:44.621Z,5.20
2019-03-18T09:01:48.072Z,5.05
2019-03-18T09:03:52.342Z,4.60
2019-03-18T09:05:55.977Z,5.60
2019-03-18T09:07:59.444Z,6.95
2019-03-18T09:10:04.066Z,6.60
2019-03-18T09:12:07.656Z,7.87
2019-03-18T09:14:11.236Z,6.90
2019-03-18T09:16:14.881Z,8.38
2019-03-18T09:18:18.667Z,7.17
2019-03-18T09:20:22.294Z,7.90
2019-03-18T09:22:25.754Z,6.80
2019-03-18T09:24:29.221Z,7.58
2019-03-18T09:26:32.779Z,10.55
2019-03-18T09:28:36.288Z,8.13
2019-03-18T09:30:40.048Z,6.55
2019-03-18T09:32:43.812Z,9.35
2019-03-18T09:34:47.569Z,8.45
2019-03-18T09:36:51.044Z,11.10
2019-03-18T09:38:54.949Z,15.23
2019-03-18T09:40:58.489Z,10.72
2019-03-18T09:43:02.835Z,13.80
2019-03-18T09:45:17.367Z,57.83
2019-03-18T09:47:20.916Z,21.33
2019-03-18T09:49:24.382Z,12.00
2019-03-18T09:51:28.206Z,7.67
2019-03-18T09:53:31.678Z,7.10
2019-03-18T09:55:36.019Z,8.65
2019-03-18T09:57:39.593Z,7.12
2019-03-18T09:59:43.203Z,6.00
2019-03-18T10:01:47.031Z,5.00
2019-03-18T10:03:50.824Z,4.65
2019-03-18T10:05:54.717Z,5.12
2019-03-18T10:07:58.256Z,5.55
2019-03-18T10:10:02.054Z,6.25
2019-03-18T10:12:05.908Z,8.25
2019-03-18T10:14:09.389Z,5.90
2019-03-18T10:16:13.217Z,5.42
2019-03-18T10:18:17.027Z,4.60
2019-03-18T10:20:21.546Z,4.37
2019-03-18T10:22:25.341Z,4.90
2019-03-18T10:24:29.348Z,6.40
2019-03-18T10:26:32.821Z,6.08
2019-03-18T10:28:36.647Z,6.35
2019-03-18T10:30:40.112Z,6.33
2019-03-18T10:32:44.262Z,5.62
2019-03-18T10:34:48.672Z,2.92
2019-03-18T10:36:52.304Z,3.08
2019-03-18T10:38:56.069Z,3.40
2019-03-18T10:40:59.877Z,3.35
2019-03-18T10:43:03.457Z,3.83
2019-03-18T10:45:09.606Z,4.17
2019-03-18T10:47:13.403Z,4.70
2019-03-18T10:49:16.993Z,4.67
2019-03-18T10:51:20.528Z,4.15
2019-03-18T10:53:24.061Z,4.22
2019-03-18T10:55:27.604Z,4.03
2019-03-18T10:57:32.029Z,3.70
2019-03-18T10:59:35.496Z,4.00
2019-03-18T11:01:39.035Z,4.37
2019-03-18T11:03:42.564Z,4.90
2019-03-18T11:05:46.171Z,4.03
2019-03-18T11:07:51.719Z,3.60
2019-03-18T11:09:54.994Z,3.95
2019-03-18T11:11:58.521Z,3.90
2019-03-18T11:14:02.048Z,4.40
2019-03-18T11:16:05.844Z,4.60
2019-03-18T11:18:09.313Z,4.80
2019-03-18T11:20:14.185Z,4.22
2019-03-18T11:22:18.273Z,4.20
2019-03-18T11:24:21.986Z,4.60
2019-03-18T11:26:25.526Z,6.92
2019-03-18T11:28:29.061Z,4.28
2019-03-18T11:30:32.588Z,3.98
2019-03-18T11:32:36.374Z,3.60
2019-03-18T11:34:39.833Z,6.30
2019-03-18T11:36:43.359Z,4.50
2019-03-18T11:38:47.018Z,4.90
2019-03-18T11:40:50.555Z,6.20
2019-03-18T11:42:54.085Z,5.58
2019-03-18T11:44:57.597Z,4.95
2019-03-18T11:47:01.065Z,3.77
2019-03-18T11:49:04.669Z,8.95
2019-03-18T11:51:08.663Z,10.23
2019-03-18T11:53:14.492Z,9.95
2019-03-18T11:55:19.672Z,7.60
2019-03-18T11:57:23.134Z,4.37
2019-03-18T11:59:26.705Z,4.10
2019-03-18T12:01:30.292Z,5.67
2019-03-18T12:03:34.092Z,5.03
2019-03-18T12:05:37.625Z,5.90
2019-03-18T12:07:41.159Z,4.83
2019-03-18T12:09:44.734Z,5.30
2019-03-18T12:11:48.277Z,5.60
2019-03-18T12:13:51.732Z,4.95
2019-03-18T12:15:55.273Z,5.10
2019-03-18T12:17:59.514Z,4.80
2019-03-18T12:20:03.995Z,4.72
2019-03-18T12:22:07.535Z,9.35
2019-03-18T12:24:11.081Z,12.50
2019-03-18T12:26:14.688Z,9.25
2019-03-18T12:28:18.619Z,8.05
2019-03-18T12:30:26.820Z,9.20
2019-03-18T12:32:30.293Z,12.82
2019-03-18T12:34:34.246Z,7.22
2019-03-18T12:36:37.793Z,17.32
2019-03-18T12:38:41.260Z,8.43
2019-03-18T12:40:44.791Z,8.95
2019-03-18T12:42:50.358Z,10.00
2019-03-18T12:44:54.256Z,5.65
2019-03-18T12:46:58.061Z,5.97
2019-03-18T12:49:01.606Z,6.42
2019-03-18T12:51:05.219Z,6.05
2019-03-18T12:53:09.033Z,5.12
2019-03-18T12:55:12.642Z,6.10
2019-03-18T12:57:16.457Z,5.25
2019-03-18T12:59:20.413Z,5.00
2019-03-18T13:01:24.263Z,4.85
2019-03-18T13:03:27.788Z,5.10
2019-03-18T13:05:31.425Z,4.40
2019-03-18T13:07:35.265Z,4.67
2019-03-18T13:09:40.260Z,5.17
2019-03-18T13:11:44.105Z,6.42
2019-03-18T13:13:47.641Z,8.15
2019-03-18T13:15:52.418Z,12.93
2019-03-18T13:17:57.156Z,8.75
2019-03-18T13:20:01.178Z,9.55
2019-03-18T13:22:04.857Z,6.42
2019-03-18T13:24:08.756Z,7.80
2019-03-18T13:26:12.557Z,8.30
2019-03-18T13:28:16.020Z,9.13
2019-03-18T13:30:23.914Z,7.90
2019-03-18T13:32:27.961Z,15.98
2019-03-18T13:34:31.869Z,8.08
2019-03-18T13:36:35.405Z,28.23
2019-03-18T13:38:39.267Z,14.13
2019-03-18T13:40:45.773Z,7.35
2019-03-18T13:42:48.799Z,8.90
2019-03-18T13:44:52.641Z,6.60
2019-03-18T13:46:56.422Z,15.88
2019-03-18T13:49:00.458Z,7.92
2019-03-18T13:51:04.201Z,13.70
2019-03-18T13:53:07.833Z,13.35
2019-03-18T13:55:11.450Z,17.07
2019-03-18T13:57:15.058Z,15.18
2019-03-18T13:59:18.850Z,14.78
2019-03-18T14:01:22.465Z,26.90
2019-03-18T14:03:26.081Z,11.08
2019-03-18T14:05:30.149Z,8.35
2019-03-18T14:07:33.657Z,9.05
2019-03-18T14:09:37.462Z,8.05
2019-03-18T14:11:41.006Z,11.60
2019-03-18T14:13:44.803Z,14.13
2019-03-18T14:15:48.445Z,7.55
2019-03-18T14:17:52.177Z,6.15
2019-03-18T14:19:55.648Z,7.72
2019-03-18T14:22:00.707Z,4.67
2019-03-18T14:24:04.240Z,5.67
2019-03-18T14:26:07.783Z,7.30
2019-03-18T14:28:11.256Z,18.12
2019-03-18T14:30:16.872Z,39.48
2019-03-18T14:32:20.890Z,45.85
2019-03-18T14:34:25.971Z,65.80
2019-03-18T14:36:29.562Z,26.02
2019-03-18T14:38:33.139Z,52.70
2019-03-18T14:40:36.688Z,39.27
2019-03-18T14:42:40.521Z,30.40
2019-03-18T14:44:44.420Z,9.93
2019-03-18T14:46:48.361Z,36.85
2019-03-18T14:48:52.205Z,38.80
2019-03-18T14:50:56.649Z,29.42
2019-03-18T14:53:00.553Z,46.80
2019-03-18T14:55:05.358Z,62.60
2019-03-18T14:57:09.370Z,66.00
2019-03-18T14:59:12.976Z,75.15
2019-03-18T15:01:16.797Z,76.00
2019-03-18T15:03:20.375Z,78.50
2019-03-18T15:05:24.020Z,84.50
2019-03-18T15:07:27.565Z,69.00
2019-03-18T15:09:31.036Z,42.73
2019-03-18T15:11:34.689Z,43.83
2019-03-18T15:13:38.231Z,29.40
2019-03-18T15:15:42.078Z,24.60
2019-03-18T15:17:46.014Z,18.77
2019-03-18T15:19:49.710Z,15.85
2019-03-18T15:21:58.740Z,18.55
2019-03-18T15:24:00.570Z,17.25
2019-03-18T15:26:05.262Z,9.63
2019-03-18T15:28:09.291Z,8.00
2019-03-18T15:30:17.953Z,7.60
2019-03-18T15:32:21.545Z,7.28
2019-03-18T15:34:25.014Z,4.80
2019-03-18T15:36:28.861Z,5.35
2019-03-18T15:38:32.388Z,4.33
2019-03-18T15:40:36.025Z,4.17
2019-03-18T15:42:39.565Z,6.08
2019-03-18T15:44:43.184Z,10.28
2019-03-18T15:46:47.094Z,7.33
2019-03-18T15:48:50.746Z,12.28
2019-03-18T15:50:54.284Z,9.90
2019-03-18T15:52:58.269Z,10.98
2019-03-18T15:55:01.738Z,18.62
2019-03-18T15:57:05.262Z,12.13
2019-03-18T15:59:08.909Z,8.30
2019-03-18T16:01:12.818Z,10.10
2019-03-18T16:03:16.897Z,17.17
2019-03-18T16:05:20.636Z,24.25
2019-03-18T16:07:24.177Z,26.87
2019-03-18T16:09:28.001Z,21.33
2019-03-18T16:11:31.909Z,23.95
2019-03-18T16:13:35.782Z,15.10
2019-03-18T16:15:39.612Z,23.02
2019-03-18T16:17:43.325Z,18.82
2019-03-18T16:19:47.246Z,19.77
2019-03-18T16:21:50.716Z,38.60
2019-03-18T16:23:54.530Z,66.82
2019-03-18T16:25:58.148Z,58.92
2019-03-18T16:28:01.948Z,43.52
2019-03-18T16:30:08.989Z,57.03
2019-03-18T16:32:12.452Z,50.10
2019-03-18T16:34:15.926Z,39.05
2019-03-18T16:36:19.709Z,57.35
2019-03-18T16:38:23.257Z,41.23
2019-03-18T16:40:27.086Z,36.33
2019-03-18T16:42:30.721Z,43.80
2019-03-18T16:44:34.189Z,45.17
2019-03-18T16:46:37.741Z,32.50
2019-03-18T16:48:41.323Z,30.32
2019-03-18T16:50:45.278Z,28.73
2019-03-18T16:52:48.933Z,66.47
2019-03-18T16:54:52.481Z,63.60
2019-03-18T16:56:55.999Z,49.48
2019-03-18T16:58:59.624Z,41.68
2019-03-18T17:01:03.094Z,42.17
2019-03-18T17:03:09.571Z,56.73
2019-03-18T17:05:13.448Z,73.20
2019-03-18T17:07:20.002Z,66.82
2019-03-18T17:09:23.629Z,65.45
2019-03-18T17:11:27.397Z,44.45
2019-03-18T17:13:31.201Z,32.95
2019-03-18T17:15:34.740Z,42.30
2019-03-18T17:17:38.200Z,45.33
2019-03-18T17:19:42.017Z,132.20
2019-03-18T17:21:45.669Z,93.35
2019-03-18T17:23:50.788Z,83.20
2019-03-18T17:25:54.262Z,106.17
2019-03-18T17:27:58.153Z,174.62
2019-03-18T17:30:01.622Z,147.28
2019-03-18T17:32:05.124Z,187.72
2019-03-18T17:34:08.646Z,131.07
2019-03-18T17:36:12.541Z,164.88
2019-03-18T17:38:16.167Z,110.40
2019-03-18T17:40:21.242Z,134.70
2019-03-18T17:42:25.761Z,112.75
2019-03-18T17:44:30.151Z,73.05
2019-03-18T17:46:34.054Z,58.50
2019-03-18T17:48:38.010Z,37.15
2019-03-18T17:50:42.377Z,47.45
2019-03-18T17:52:45.920Z,66.87
2019-03-18T17:54:49.476Z,79.55
2019-03-18T17:56:53.330Z,54.25
2019-03-18T17:58:57.206Z,44.15
2019-03-18T18:01:02.773Z,47.53
2019-03-18T18:03:07.153Z,31.52
2019-03-18T18:05:11.406Z,26.02
2019-03-18T18:07:15.021Z,16.65
2019-03-18T18:09:18.778Z,21.40
2019-03-18T18:11:22.393Z,22.20
2019-03-18T18:13:26.278Z,14.60
2019-03-18T18:15:29.819Z,12.05
2019-03-18T18:17:33.357Z,14.25
2019-03-18T18:19:36.908Z,23.50
2019-03-18T18:21:40.544Z,32.73
2019-03-18T18:23:44.397Z,37.53
2019-03-18T18:25:47.937Z,45.10
2019-03-18T18:27:51.651Z,48.73
2019-03-18T18:29:55.485Z,42.43
2019-03-18T18:31:59.034Z,29.80
2019-03-18T18:34:03.490Z,22.93
2019-03-18T18:36:07.393Z,21.45
2019-03-18T18:38:10.926Z,21.15
2019-03-18T18:40:17.189Z,21.48
2019-03-18T18:42:20.730Z,26.62
2019-03-18T18:44:24.569Z,25.97
2019-03-18T18:46:28.342Z,29.85
2019-03-18T18:48:32.206Z,32.15
2019-03-18T18:50:35.825Z,34.08
2019-03-18T18:52:39.421Z,30.90
2019-03-18T18:54:42.892Z,33.85
2019-03-18T18:56:46.360Z,21.55
2019-03-18T18:58:49.953Z,14.33
2019-03-18T19:00:53.499Z,19.85
2019-03-18T19:02:57.948Z,31.50
2019-03-18T19:05:02.054Z,34.13
2019-03-18T19:07:05.593Z,24.72
2019-03-18T19:09:09.499Z,20.52
2019-03-18T19:11:20.521Z,45.38
2019-03-18T19:13:24.061Z,53.95
2019-03-18T19:15:36.393Z,60.25
2019-03-18T19:17:40.072Z,98.62
2019-03-18T19:19:43.798Z,186.40
2019-03-18T19:21:47.629Z,147.32
2019-03-18T19:23:51.369Z,81.12
2019-03-18T19:25:54.910Z,65.12
2019-03-18T19:27:58.453Z,52.80
2019-03-18T19:30:02.917Z,51.05
2019-03-18T19:32:06.844Z,57.27
2019-03-18T19:34:10.881Z,77.97
2019-03-18T19:36:15.253Z,81.35
2019-03-18T19:38:19.097Z,65.47
2019-03-18T19:40:25.749Z,70.03
2019-03-18T19:42:29.545Z,104.17
2019-03-18T19:44:33.085Z,114.05
2019-03-18T19:46:36.618Z,85.57
2019-03-18T19:48:40.158Z,84.55
2019-03-18T19:50:43.889Z,73.47
2019-03-18T19:52:47.734Z,71.00
2019-03-18T19:54:51.348Z,76.20
2019-03-18T19:56:55.139Z,79.58
2019-03-18T19:58:58.677Z,70.78
2019-03-18T20:01:02.148Z,66.72
2019-03-18T20:03:06.033Z,59.63
2019-03-18T20:05:14.928Z,55.38
2019-03-18T20:07:15.809Z,78.15
2019-03-18T20:09:19.795Z,77.05
2019-03-18T20:11:23.469Z,70.00
2019-03-18T20:13:27.321Z,70.45
2019-03-18T20:15:30.862Z,77.20
2019-03-18T20:17:34.406Z,90.07
2019-03-18T20:19:38.321Z,75.75
2019-03-18T20:21:41.867Z,51.90
2019-03-18T20:23:45.793Z,37.73
2019-03-18T20:25:49.597Z,32.88
2019-03-18T20:27:54.459Z,26.97
2019-03-18T20:29:58.330Z,22.70
2019-03-18T20:32:02.267Z,36.20
2019-03-18T20:34:08.888Z,60.03
2019-03-18T20:36:12.726Z,28.05
2019-03-18T20:38:16.550Z,22.52
2019-03-18T20:40:21.289Z,22.60
2019-03-18T20:42:25.241Z,24.15
2019-03-18T20:44:28.781Z,28.40
2019-03-18T20:46:32.241Z,29.20
2019-03-18T20:48:36.140Z,47.83
2019-03-18T20:50:40.061Z,32.45
2019-03-18T20:52:43.592Z,29.20
2019-03-18T20:54:47.437Z,34.63
2019-03-18T20:56:50.990Z,50.48
2019-03-18T20:58:54.521Z,29.10
2019-03-18T21:00:58.931Z,22.77
2019-03-18T21:03:02.459Z,21.82
2019-03-18T21:05:08.053Z,19.30
2019-03-18T21:07:11.894Z,19.55
2019-03-18T21:09:15.794Z,18.37
2019-03-18T21:11:19.728Z,15.90
2019-03-18T21:13:23.269Z,16.27
2019-03-18T21:15:27.612Z,18.17
2019-03-18T21:17:31.428Z,18.20
2019-03-18T21:19:34.885Z,21.65
2019-03-18T21:21:38.653Z,14.33
2019-03-18T21:23:42.741Z,17.90
2019-03-18T21:25:47.057Z,12.25
2019-03-18T21:27:50.525Z,16.80
2019-03-18T21:29:55.002Z,12.33
2019-03-18T21:31:58.653Z,16.42
2019-03-18T21:34:02.206Z,128.65
2019-03-18T21:36:05.807Z,16.95
2019-03-18T21:38:09.527Z,12.93
2019-03-18T21:40:14.838Z,11.70
2019-03-18T21:42:18.453Z,12.37
2019-03-18T21:44:21.989Z,14.68
2019-03-18T21:46:25.554Z,19.05
2019-03-18T21:48:29.069Z,16.75
2019-03-18T21:50:33.325Z,13.45
2019-03-18T21:52:37.137Z,15.70
2019-03-18T21:54:40.889Z,12.50
2019-03-18T21:56:44.421Z,14.93
2019-03-18T21:58:47.885Z,16.70
2019-03-18T22:00:51.422Z,18.00
2019-03-18T22:02:55.021Z,16.10
2019-03-18T22:04:58.480Z,15.15
2019-03-18T22:07:01.941Z,15.03
2019-03-18T22:09:07.500Z,14.50
2019-03-18T22:11:11.402Z,12.70
2019-03-18T22:13:15.701Z,65.10
2019-03-18T22:15:19.301Z,14.80
2019-03-18T22:17:23.045Z,14.15
2019-03-18T22:19:26.513Z,20.90
2019-03-18T22:21:29.981Z,10.95
2019-03-18T22:23:33.804Z,11.60
2019-03-18T22:25:37.371Z,14.68
2019-03-18T22:27:41.523Z,17.87
2019-03-18T22:29:45.058Z,14.70
2019-03-18T22:31:48.914Z,19.60
2019-03-18T22:33:55.687Z,16.48
2019-03-18T22:35:59.317Z,28.77
2019-03-18T22:38:02.785Z,18.77
2019-03-18T22:40:08.994Z,14.60
2019-03-18T22:42:13.085Z,14.85
2019-03-18T22:44:16.545Z,13.38
2019-03-18T22:46:20.241Z,12.28
2019-03-18T22:48:24.149Z,16.77
2019-03-18T22:50:27.614Z,20.27
2019-03-18T22:52:31.076Z,19.65
2019-03-18T22:54:34.627Z,33.80
2019-03-18T22:56:38.168Z,18.80
2019-03-18T22:58:41.661Z,13.10
2019-03-18T23:00:47.634Z,12.33
2019-03-18T23:02:51.665Z,14.63
2019-03-18T23:04:55.485Z,13.10
2019-03-18T23:06:58.954Z,16.07
2019-03-18T23:09:02.589Z,14.45
2019-03-18T23:11:06.051Z,18.20
2019-03-18T23:13:09.848Z,19.35
2019-03-18T23:15:13.961Z,37.20
2019-03-18T23:17:17.793Z,30.17
2019-03-18T23:19:21.594Z,23.02
2019-03-18T23:21:25.165Z,79.17
2019-03-18T23:23:28.989Z,29.75
2019-03-18T23:25:32.794Z,28.50
2019-03-18T23:27:36.330Z,31.45
2019-03-18T23:29:40.165Z,25.82
2019-03-18T23:31:44.122Z,17.32
2019-03-18T23:33:47.586Z,17.02
2019-03-18T23:35:51.124Z,14.75
2019-03-18T23:37:54.589Z,13.60
2019-03-18T23:39:58.044Z,13.80
2019-03-18T23:42:01.504Z,14.43
2019-03-18T23:44:05.272Z,14.60
2019-03-18T23:46:09.074Z,13.53
2019-03-18T23:48:12.610Z,13.80
2019-03-18T23:50:16.924Z,12.85
2019-03-18T23:52:20.544Z,13.08
2019-03-18T23:54:24.252Z,13.30
2019-03-18T23:56:27.708Z,23.52
2019-03-18T23:58:31.240Z,14.75
